createdAt,value
2023-04-10T00:02:54.903Z,100.00
2023-04-10T00:07:59.673Z,100.00
2023-04-10T00:13:03.703Z,100.00
2023-04-10T00:18:06.745Z,100.00
2023-04-10T00:23:10.847Z,100.00
2023-04-10T00:28:14.371Z,100.00
2023-04-10T00:33:17.130Z,100.00
2023-04-10T00:38:21.417Z,100.00
2023-04-10T00:43:24.404Z,100.00
2023-04-10T00:48:27.591Z,100.00
2023-04-10T00:53:32.496Z,100.00
2023-04-10T00:58:35.365Z,100.00
2023-04-10T01:03:39.446Z,100.00
2023-04-10T01:08:54.230Z,100.00
2023-04-10T01:14:06.530Z,100.00
2023-04-10T01:19:20.685Z,100.00
2023-04-10T01:24:43.624Z,100.00
2023-04-10T01:29:53.542Z,100.00
2023-04-10T01:34:58.344Z,100.00
2023-04-10T01:40:04.301Z,100.00
2023-04-10T01:45:14.722Z,100.00
2023-04-10T01:50:19.081Z,100.00
2023-04-10T01:55:23.200Z,100.00
2023-04-10T02:00:38.834Z,100.00
2023-04-10T02:05:49.859Z,100.00
2023-04-10T02:10:57.310Z,100.00
2023-04-10T02:16:06.223Z,100.00
2023-04-10T02:21:09.832Z,100.00
2023-04-10T02:26:12.626Z,100.00
2023-04-10T02:31:17.646Z,100.00
2023-04-10T02:36:20.365Z,100.00
2023-04-10T02:41:24.378Z,100.00
2023-04-10T02:46:29.739Z,100.00
2023-04-10T02:51:36.383Z,100.00
2023-04-10T02:56:40.117Z,100.00
2023-04-10T03:01:44.615Z,100.00
2023-04-10T03:06:47.378Z,100.00
2023-04-10T03:11:50.166Z,100.00
2023-04-10T03:16:54.441Z,100.00
2023-04-10T03:21:57.399Z,100.00
2023-04-10T03:27:00.288Z,100.00
2023-04-10T03:32:04.685Z,100.00
2023-04-10T03:37:09.718Z,100.00
2023-04-10T03:42:13.746Z,100.00
2023-04-10T03:47:17.916Z,100.00
2023-04-10T03:52:24.711Z,100.00
2023-04-10T03:57:28.783Z,100.00
2023-04-10T04:02:39.614Z,100.00
2023-04-10T04:07:42.688Z,100.00
2023-04-10T04:13:11.544Z,100.00
2023-04-10T04:18:41.819Z,100.00
2023-04-10T04:24:05.216Z,100.00
2023-04-10T04:29:31.000Z,100.00
2023-04-10T04:34:46.323Z,100.00
2023-04-10T04:40:10.110Z,100.00
2023-04-10T04:45:42.325Z,100.00
2023-04-10T04:51:07.614Z,100.00
2023-04-10T04:56:39.053Z,100.00
2023-04-10T05:01:44.622Z,100.00
2023-04-10T05:07:08.796Z,100.00
2023-04-10T05:12:45.911Z,100.00
2023-04-10T05:17:59.615Z,100.00
2023-04-10T05:23:30.348Z,100.00
2023-04-10T05:28:52.759Z,100.00
2023-04-10T05:34:08.205Z,100.00
2023-04-10T05:39:23.681Z,100.00
2023-04-10T05:44:45.749Z,100.00
2023-04-10T05:50:03.106Z,100.00
2023-04-10T05:55:19.678Z,100.00
2023-04-10T06:00:41.841Z,100.00
2023-04-10T06:06:13.913Z,100.00
2023-04-10T06:11:18.329Z,100.00
2023-04-10T06:16:26.807Z,100.00
2023-04-10T06:21:30.694Z,100.00
2023-04-10T06:26:34.967Z,100.00
2023-04-10T06:31:39.272Z,100.00
2023-04-10T06:36:43.885Z,100.00
2023-04-10T06:41:48.250Z,100.00
2023-04-10T06:47:06.992Z,100.00
2023-04-10T06:52:11.309Z,100.00
2023-04-10T06:57:16.056Z,100.00
2023-04-10T07:02:19.074Z,100.00
2023-04-10T07:07:21.859Z,100.00
2023-04-10T07:12:26.552Z,100.00
2023-04-10T07:17:29.598Z,100.00
2023-04-10T07:22:33.262Z,98.07
2023-04-10T07:27:39.233Z,99.28
2023-04-10T07:32:42.563Z,95.62
2023-04-10T07:37:46.579Z,90.60
2023-04-10T07:42:53.800Z,88.03
2023-04-10T07:47:58.384Z,86.15
2023-04-10T07:53:03.626Z,87.62
2023-04-10T07:58:09.756Z,82.74
2023-04-10T08:03:13.358Z,82.53
2023-04-10T08:08:16.956Z,80.77
2023-04-10T08:13:22.724Z,78.53
2023-04-10T08:18:26.571Z,77.30
2023-04-10T08:23:29.324Z,74.97
2023-04-10T08:28:34.016Z,74.00
2023-04-10T08:33:37.598Z,72.70
2023-04-10T08:38:41.777Z,73.58
2023-04-10T08:43:49.617Z,73.20
2023-04-10T08:49:00.410Z,71.01
2023-04-10T08:54:08.017Z,69.83
2023-04-10T08:59:12.089Z,67.35
2023-04-10T09:04:17.157Z,65.91
2023-04-10T09:09:20.773Z,64.43
2023-04-10T09:14:25.928Z,63.78
2023-04-10T09:19:31.871Z,62.71
2023-04-10T09:24:38.778Z,62.17
2023-04-10T09:29:45.875Z,61.07
2023-04-10T09:34:59.063Z,58.36
2023-04-10T09:40:02.449Z,56.74
2023-04-10T09:45:07.725Z,55.84
2023-04-10T09:50:10.514Z,54.35
2023-04-10T09:55:18.241Z,53.29
2023-04-10T10:00:23.065Z,52.43
2023-04-10T10:05:31.096Z,53.55
2023-04-10T10:10:34.371Z,51.04
2023-04-10T10:15:46.001Z,51.31
2023-04-10T10:20:50.351Z,50.31
2023-04-10T10:25:55.922Z,50.71
2023-04-10T10:31:01.067Z,51.26
2023-04-10T10:36:04.768Z,50.88
2023-04-10T10:41:15.358Z,49.96
2023-04-10T10:46:26.731Z,49.49
2023-04-10T10:51:46.838Z,50.79
2023-04-10T10:56:50.515Z,50.64
2023-04-10T11:02:19.218Z,50.46
2023-04-10T11:07:22.392Z,49.42
2023-04-10T11:12:26.238Z,50.62
2023-04-10T11:17:51.431Z,49.84
2023-04-10T11:23:12.327Z,48.71
2023-04-10T11:28:35.461Z,49.38
2023-04-10T11:33:39.797Z,47.78
2023-04-10T11:38:42.655Z,46.62
2023-04-10T11:43:46.296Z,46.53
2023-04-10T11:48:54.118Z,46.25
2023-04-10T11:54:08.091Z,45.22
2023-04-10T11:59:13.319Z,44.59
2023-04-10T12:04:19.188Z,43.00
2023-04-10T12:09:23.124Z,44.02
2023-04-10T12:14:31.172Z,44.55
2023-04-10T12:19:37.592Z,43.73
2023-04-10T12:24:44.884Z,42.67
2023-04-10T12:29:49.958Z,39.94
2023-04-10T12:34:57.183Z,39.79
2023-04-10T12:40:08.433Z,40.92
2023-04-10T12:45:13.998Z,41.71
2023-04-10T12:50:21.429Z,41.46
2023-04-10T12:55:24.241Z,41.66
2023-04-10T13:00:27.314Z,41.51
2023-04-10T13:05:31.382Z,41.04
2023-04-10T13:10:34.141Z,41.78
2023-04-10T13:15:36.833Z,40.71
2023-04-10T13:20:42.015Z,41.89
2023-04-10T13:25:44.988Z,41.81
2023-04-10T13:30:50.264Z,43.10
2023-04-10T13:35:55.206Z,42.88
2023-04-10T13:40:58.876Z,41.70
2023-04-10T13:46:01.728Z,41.42
2023-04-10T13:51:07.284Z,42.06
2023-04-10T13:56:10.854Z,41.80
2023-04-10T14:01:13.689Z,41.08
2023-04-10T14:06:17.976Z,41.34
2023-04-10T14:11:21.593Z,41.33
2023-04-10T14:16:24.339Z,40.01
2023-04-10T14:21:31.050Z,40.89
2023-04-10T14:26:34.290Z,40.54
2023-04-10T14:31:44.173Z,41.36
2023-04-10T14:36:59.608Z,41.39
2023-04-10T14:42:03.267Z,43.11
2023-04-10T14:47:06.534Z,42.33
2023-04-10T14:52:13.444Z,42.63
2023-04-10T14:57:17.337Z,43.28
2023-04-10T15:02:20.242Z,43.00
2023-04-10T15:07:25.527Z,43.72
2023-04-10T15:12:28.372Z,43.26
2023-04-10T15:17:31.437Z,43.08
2023-04-10T15:22:35.789Z,43.37
2023-04-10T15:27:39.070Z,42.71
2023-04-10T15:32:41.920Z,42.53
2023-04-10T15:37:46.087Z,42.81
2023-04-10T15:42:49.410Z,42.62
2023-04-10T15:47:53.993Z,43.15
2023-04-10T15:52:58.067Z,44.23
2023-04-10T15:58:02.532Z,43.43
2023-04-10T16:03:05.899Z,44.88
2023-04-10T16:08:13.401Z,44.94
2023-04-10T16:13:16.153Z,44.93
2023-04-10T16:18:20.641Z,44.51
2023-04-10T16:23:24.698Z,45.14
2023-04-10T16:28:28.199Z,45.14
2023-04-10T16:33:32.371Z,44.86
2023-04-10T16:38:36.561Z,44.66
2023-04-10T16:43:39.531Z,43.56
2023-04-10T16:48:43.667Z,41.64
2023-04-10T16:53:47.752Z,43.25
2023-04-10T16:58:51.484Z,43.36
2023-04-10T17:03:55.578Z,43.38
2023-04-10T17:09:01.894Z,43.93
2023-04-10T17:14:05.883Z,44.08
2023-04-10T17:19:09.065Z,44.79
2023-04-10T17:24:13.568Z,45.61
2023-04-10T17:29:19.600Z,45.95
2023-04-10T17:34:22.369Z,46.07
2023-04-10T17:39:27.155Z,46.89
2023-04-10T17:44:30.007Z,47.84
2023-04-10T17:49:32.875Z,47.09
2023-04-10T17:54:37.571Z,47.41
2023-04-10T17:59:40.668Z,47.58
2023-04-10T18:04:44.121Z,47.38
2023-04-10T18:09:48.351Z,48.32
2023-04-10T18:14:51.446Z,48.84
2023-04-10T18:19:56.101Z,48.86
2023-04-10T18:25:00.939Z,49.58
2023-04-10T18:30:04.056Z,50.48
2023-04-10T18:35:08.121Z,50.87
2023-04-10T18:40:16.758Z,51.00
2023-04-10T18:45:20.624Z,50.84
2023-04-10T18:50:23.556Z,53.05
2023-04-10T18:55:27.658Z,55.28
2023-04-10T19:00:31.978Z,59.95
2023-04-10T19:05:34.691Z,61.81
2023-04-10T19:10:39.602Z,64.03
2023-04-10T19:15:43.651Z,66.96
2023-04-10T19:20:50.519Z,66.86
2023-04-10T19:25:58.531Z,69.12
2023-04-10T19:31:01.589Z,71.61
2023-04-10T19:36:06.836Z,74.41
2023-04-10T19:41:16.117Z,73.95
2023-04-10T19:46:19.371Z,76.03
2023-04-10T19:51:22.235Z,75.72
2023-04-10T19:56:26.935Z,76.86
2023-04-10T20:01:30.656Z,78.46
2023-04-10T20:06:34.282Z,80.01
2023-04-10T20:11:38.799Z,82.53
2023-04-10T20:16:42.312Z,83.52
2023-04-10T20:21:45.197Z,83.25
2023-04-10T20:26:49.270Z,85.04
2023-04-10T20:31:53.843Z,85.72
2023-04-10T20:36:56.630Z,85.88
2023-04-10T20:42:01.294Z,85.92
2023-04-10T20:47:06.187Z,87.61
2023-04-10T20:52:09.395Z,88.51
2023-04-10T20:57:13.641Z,90.98
2023-04-10T21:02:18.112Z,97.68
2023-04-10T21:07:21.338Z,100.00
2023-04-10T21:12:25.747Z,100.00
2023-04-10T21:17:31.489Z,100.00
2023-04-10T21:22:34.641Z,100.00
2023-04-10T21:27:38.903Z,100.00
2023-04-10T21:32:42.051Z,100.00
2023-04-10T21:37:44.908Z,100.00
2023-04-10T21:42:49.618Z,100.00
2023-04-10T21:47:52.668Z,100.00
2023-04-10T21:52:55.565Z,100.00
2023-04-10T21:57:59.828Z,100.00
2023-04-10T22:03:02.814Z,100.00
2023-04-10T22:08:06.199Z,100.00
2023-04-10T22:13:12.296Z,100.00
2023-04-10T22:18:19.859Z,100.00
2023-04-10T22:23:24.180Z,100.00
2023-04-10T22:28:28.541Z,100.00
2023-04-10T22:33:32.724Z,100.00
2023-04-10T22:38:35.495Z,100.00
2023-04-10T22:43:39.580Z,100.00
2023-04-10T22:48:42.320Z,100.00
2023-04-10T22:53:45.003Z,100.00
2023-04-10T22:58:49.105Z,100.00
2023-04-10T23:03:53.804Z,100.00
2023-04-10T23:08:56.988Z,100.00
2023-04-10T23:14:01.337Z,100.00
2023-04-10T23:19:04.184Z,100.00
2023-04-10T23:24:07.496Z,100.00
2023-04-10T23:29:11.629Z,100.00
2023-04-10T23:34:14.421Z,100.00
2023-04-10T23:39:17.193Z,100.00
2023-04-10T23:44:21.342Z,100.00
2023-04-10T23:49:24.339Z,100.00
2023-04-10T23:54:27.303Z,100.00
2023-04-10T23:59:31.496Z,100.00
